Race profile

Medtronic Twin Cities
Saint Paul MN/USA
05 Oct 2014
Road
Marathon
Record quality course
Men: -122.95 sec (-2.91 sec/km)
Women: -55.60 sec (-1.31 sec/km)
Men: 347
Women: 332
Total: 8848
Men: 4854
Women: 3994
$194,000
Twin Cities

Results (men)

Finished Time Flags Given name Surname Alternate name Citizenship Birth date Prize money Actions
1 2:13:32 Tyler Pennell USA 21 Dec 1987 $26,500
2 2:14:00 Jared Ward USA 09 Sep 1988 $15,750
3 2:14:40 Scott Smith USA 13 Jul 1986 $10,600
4 2:15:08 Ian Burrell USA 15 Feb 1985 $7,400
5 2:15:26 Tyler McCandless USA 14 Oct 1986 $5,300
6 2:15:47 Nathan Martin USA 18 Dec 1989 $4,200
7 2:16:48 Sergio Reyes USA 25 Oct 1981 $3,150
8 2:17:05 Brian Harvey USA 08 Jun 1987 $2,100
9 2:17:19 Scott MacPherson USA 27 Feb 1987 $1,000
10 2:17:56 Eric Ashe USA 02 Jul 1988 $500
11 2:18:32 Anthony Migliozzi USA 21 Jul 1989
12 2:18:53 Blair Teal USA 01 May 1986
13 2:19:31 Ryan Cosens USA 28 May 1989
14 2:22:27 Mbarak Hussein Kipkorir USA 04 Apr 1965 $9,000
15 2:22:45 Michael Wardian USA 12 Apr 1974 $5,800
16 2:24:16 Brian Shelton USA 1979
17 2:24:55 Jason Ryf USA 15 Feb 1971 $4,000
19 2:25:01 Robert Gibson USA 1989
21 2:26:01 Jeff Sadler USA 1988
23 2:26:54 Josh Whitehead USA 10 Sep 1978
24 2:27:42 Kyle Smith USA 1988
25 2:27:51 David Williams USA 25 Sep 1971
29 2:30:48 Chris Lundberg USA 1983
30 2:31:10 Tracy Lokken USA 29 Sep 1965
38 2:35:07 Stewart Ellington USA 12 Sep 1974
46 2:38:31 Ulrich Steidl GER 06 Mar 1972
DNF DNF Sean Quigley USA 03 Sep 1982

Results (women)

Finished Time Flags Given name Surname Alternate name Citizenship Birth date Prize money Actions
1 2:34:01 Esther Atkins Erb USA 20 Apr 1986 $26,500
2 2:34:09 Heather Lieberg USA 17 Jun 1979 $15,750
3 2:34:24 Brianne Nelson Lippoldt USA 27 Oct 1980 $10,600
4 2:35:21 Arianna Hilborn LAT 19 Sep 1980 $7,400
5 2:39:14 Claudia Becque USA 12 Jul 1976 $5,300
6 2:39:21 Elizabeth Herndon USA 24 Aug 1985 $4,700
7 2:39:33 Christine Ramsey USA 13 Nov 1982 $3,150
8 2:39:59 Allison MacSas USA 19 Aug 1984 $2,100
9 2:40:04 Ruth Perkins USA 13 Sep 1980 $1,000
10 2:40:31 Meghan Peyton Armstrong USA 06 Jan 1986 $900
11 2:41:55 MacKenzie Howe USA 16 Dec 1988
12 2:42:46 Sheri Piers McCarthy USA 15 May 1971 $9,000
13 2:43:10 Heather Cappello USA 22 Feb 1980
14 2:46:13 Joanna Zeiger USA 04 May 1970 $5,800
15 2:49:46 Andrea Rediger USA 31 Dec 1988 $300
16 2:50:49 Adrian Chouinard Neal USA 1983
18 2:51:49 Rachel Gioscia Ryan USA 05 Nov 1986
19 2:52:19 Kristin Barry Pierce USA 09 Oct 1973 $4,000
22 2:53:44 Katherine McGee USA 1973 $2,200
28 2:57:19 Jennifer McConnell USA 1983
30 2:59:43 Christine Kennedy Boyle IRL 29 Dec 1954
38 3:05:48 Katherine Wolski Perez USA 27 Dec 1966
43 3:07:37 Kelli Budd USA 01 May 1991